Jaborandi, Brazil
Current Conditions -  °F | °C
As of 9:00 PM on Sunday 21 Dec 2014 (Local Time) from SBRP Reporting Station
Overcast Overcast  
Wind Chill: 72°   Ceiling: 7000
Heat Index: 72°   Visibility: 4mi
Dew Point: 70°   Wind: 3mph
Humidity: 94%   Direction: 340°NNW
Pressure: 29.91"   Gusts: NA
Location:  20.69°S, 48.41°W
Report Text: SBRP 212300Z 34003KT 7000 SCT005 OVC070 22/21 Q1013
Loading
Personal Weather Stations






























Interactive Weather Map New forecast layout! Learn more

10-Day Weather Forecast

Advertisements
Track Severe Weather on mobile